Time;durP1;ratioP1;P1;durP2;ratioP2;P2;SDS_P1;SDS_P2;PMS_P1;PMS_P2;Temp;Humidity;BMP_temperature;BMP_pressure;BME280_temperature;BME280_humidity;BME280_pressure;Samples;Min_cycle;Max_cycle;Signal;HPM_P1;HPM_P2
2023/03/23 06:01:23;;;;;;;;;;;;;;;15.33;49.88;96450.13;4223291;27;10410;-76
2023/03/23 06:03:25;;;;;;;;;;;;;;;15.63;49.52;96452.72;4214897;28;5974;-77
2023/03/23 06:05:28;;;;;;;;;;;;;;;15.88;49.08;96460.44;4212883;28;5706;-75
2023/03/23 06:07:31;;;;;;;;;;;;;;;16.08;48.86;96469.88;4213705;28;5832;-75
2023/03/23 06:09:32;;;;;;;;;;;;;;;16.22;48.56;96461.41;4198061;28;5846;-75
2023/03/23 06:11:35;;;;;;;;;;;;;;;16.36;48.52;96474.44;4197059;28;5880;-75
2023/03/23 06:13:36;;;;;;;;;;;;;;;16.46;48.33;96475.47;4207776;28;5807;-76
2023/03/23 06:15:39;;;;;;;;;;;;;;;16.54;48.38;96475.09;4208097;28;5896;-76
2023/03/23 06:17:42;;;;;;;;;;;;;;;16.61;47.93;96474.94;4213147;28;6377;-75
2023/03/23 06:19:46;;;;;;;;;;;;;;;16.68;47.86;96486.31;4214067;28;5773;-75
2023/03/23 06:21:48;;;;;;;;;;;;;;;16.73;47.91;96489.06;4213919;28;5706;-75
2023/03/23 06:23:50;;;;;;;;;;;;;;;16.78;47.76;96489.16;4214373;28;5703;-75
2023/03/23 06:25:54;;;;;;;;;;;;;;;16.86;47.69;96503.97;4214595;28;5693;-75
2023/03/23 06:27:56;;;;;;;;;;;;;;;16.91;47.49;96504.09;4212319;28;5698;-74
2023/03/23 06:29:58;;;;;;;;;;;;;;;16.93;47.48;96498.50;4213466;28;5805;-74
2023/03/23 06:32:03;;;;;;;;;;;;;;;16.97;47.28;96502.28;4211798;28;5643;-75
2023/03/23 06:34:06;;;;;;;;;;;;;;;17.01;47.10;96500.78;4206668;28;5789;-75
2023/03/23 06:36:11;;;;;;;;;;;;;;;17.03;46.98;96506.69;4214350;28;5822;-75
2023/03/23 06:38:12;;;;;;;;;;;;;;;17.05;46.93;96508.06;4207407;28;5786;-76
2023/03/23 06:40:14;;;;;;;;;;;;;;;17.06;46.89;96504.34;4198652;28;5735;-76
2023/03/23 06:42:16;;;;;;;;;;;;;;;17.07;46.86;96505.16;4204192;28;5649;-75
2023/03/23 06:44:19;;;;;;;;;;;;;;;17.07;46.72;96505.94;4212913;28;6482;-75
2023/03/23 06:46:20;;;;;;;;;;;;;;;17.09;46.53;96508.38;4208857;28;5687;-75
2023/03/23 06:48:23;;;;;;;;;;;;;;;17.08;46.45;96512.91;4210953;28;5712;-75
2023/03/23 06:50:26;;;;;;;;;;;;;;;17.09;46.58;96514.53;4212897;28;5797;-76
2023/03/23 06:52:28;;;;;;;;;;;;;;;17.07;46.39;96505.94;4214017;28;6380;-76
2023/03/23 06:54:30;;;;;;;;;;;;;;;17.11;46.51;96508.97;4194276;28;5816;-67
2023/03/23 06:56:32;;;;;;;;;;;;;;;17.10;46.44;96508.16;4212063;28;5639;-66
2023/03/23 06:58:34;;;;;;;;;;;;;;;17.10;46.44;96504.66;4214138;28;5762;-66
2023/03/23 07:00:36;;;;;;;;;;;;;;;17.06;46.42;96500.84;4212572;28;5718;-67
2023/03/23 07:02:38;;;;;;;;;;;;;;;17.05;46.42;96507.25;4202593;28;5715;-67
2023/03/23 07:04:40;;;;;;;;;;;;;;;17.07;46.22;96502.47;4202895;28;5773;-66
2023/03/23 07:06:44;;;;;;;;;;;;;;;17.04;46.33;96500.28;4202875;28;5082;-67
2023/03/23 07:08:45;;;;;;;;;;;;;;;17.06;46.22;96501.66;4202477;28;5694;-67
2023/03/23 07:10:49;;;;;;;;;;;;;;;17.05;46.17;96502.72;4202931;28;5703;-67
2023/03/23 07:12:51;;;;;;;;;;;;;;;17.01;46.19;96508.78;4202534;28;5699;-67
2023/03/23 07:14:53;;;;;;;;;;;;;;;16.96;46.10;96509.50;4202744;28;5690;-67
2023/03/23 07:16:55;;;;;;;;;;;;;;;16.99;46.14;96509.03;4202907;28;5800;-66
2023/03/23 07:18:57;;;;;;;;;;;;;;;17.05;45.87;96509.94;4202757;28;6376;-67
2023/03/23 07:20:59;;;;;;;;;;;;;;;17.10;45.84;96502.81;4202354;28;5686;-66
2023/03/23 07:23:05;;;;;;;;;;;;;;;17.14;45.78;96500.47;4201819;28;5770;-66
2023/03/23 07:25:07;;;;;;;;;;;;;;;17.17;45.68;96511.47;4202325;28;5822;-66
2023/03/23 07:27:10;;;;;;;;;;;;;;;17.17;45.50;96508.00;4202468;28;5699;-67
2023/03/23 07:29:12;;;;;;;;;;;;;;;17.17;45.56;96490.09;4202271;28;5824;-68
2023/03/23 07:31:14;;;;;;;;;;;;;;;17.21;45.50;96498.44;4202644;28;5811;-68
2023/03/23 07:33:16;;;;;;;;;;;;;;;17.25;45.49;96494.25;4202792;28;5691;-67
2023/03/23 07:35:18;;;;;;;;;;;;;;;17.28;45.31;96487.59;4202745;28;5672;-67
2023/03/23 07:37:21;;;;;;;;;;;;;;;17.30;45.41;96499.66;4202261;28;5683;-66
2023/03/23 07:39:25;;;;;;;;;;;;;;;17.33;45.17;96507.22;4202358;28;5691;-65
2023/03/23 07:41:27;;;;;;;;;;;;;;;17.36;45.15;96500.56;4202316;28;5702;-67
2023/03/23 07:43:29;;;;;;;;;;;;;;;17.38;45.14;96501.13;4202633;28;5687;-66
2023/03/23 07:45:31;;;;;;;;;;;;;;;17.40;45.08;96501.69;4202475;28;5682;-66
2023/03/23 07:47:33;;;;;;;;;;;;;;;17.41;45.17;96504.13;4202393;28;5713;-66
2023/03/23 07:49:35;;;;;;;;;;;;;;;17.43;45.23;96511.88;4202412;28;5699;-66
2023/03/23 07:51:39;;;;;;;;;;;;;;;17.42;45.20;96510.25;4202089;28;5073;-65
2023/03/23 07:53:40;;;;;;;;;;;;;;;17.43;44.98;96514.56;4202422;28;5187;-66
2023/03/23 07:55:44;;;;;;;;;;;;;;;17.45;45.12;96529.31;4202175;28;5697;-67
2023/03/23 07:57:46;;;;;;;;;;;;;;;17.42;44.87;96528.97;4201162;28;5624;-67
2023/03/23 07:59:48;;;;;;;;;;;;;;;17.40;45.05;96529.22;4201687;28;5762;-66
2023/03/23 08:01:50;;;;;;;;;;;;;;;17.39;45.01;96526.78;4202364;28;6360;-67
2023/03/23 08:03:54;;;;;;;;;;;;;;;17.40;45.09;96534.56;4202279;28;5074;-67
2023/03/23 08:05:58;;;;;;;;;;;;;;;17.44;45.11;96529.53;4201765;28;5695;-66
2023/03/23 08:08:01;;;;;;;;;;;;;;;17.49;44.85;96539.50;4201969;28;5706;-67
2023/03/23 08:10:03;;;;;;;;;;;;;;;17.54;44.86;96544.94;4202145;28;5686;-66
2023/03/23 08:12:07;;;;;;;;;;;;;;;17.56;44.89;96535.63;4201766;28;6360;-67
2023/03/23 08:14:08;;;;;;;;;;;;;;;17.61;44.88;96526.88;4201141;28;5687;-67
2023/03/23 08:16:10;;;;;;;;;;;;;;;17.63;44.93;96530.91;4202065;28;5694;-67
2023/03/23 08:18:12;;;;;;;;;;;;;;;17.66;44.78;96525.06;4201801;28;5800;-66
2023/03/23 08:20:15;;;;;;;;;;;;;;;17.67;44.83;96532.06;4201594;28;5685;-67
2023/03/23 08:22:17;;;;;;;;;;;;;;;17.68;44.83;96533.69;4201046;28;5675;-67
2023/03/23 08:24:19;;;;;;;;;;;;;;;17.73;44.48;96539.13;4201858;28;6404;-67
2023/03/23 08:26:22;;;;;;;;;;;;;;;17.77;44.62;96531.41;4185064;28;5743;-67
2023/03/23 08:28:26;;;;;;;;;;;;;;;17.82;44.57;96525.34;4193908;28;5774;-67
2023/03/23 08:30:29;;;;;;;;;;;;;;;17.83;44.52;96530.44;4201741;28;6387;-67
2023/03/23 08:32:31;;;;;;;;;;;;;;;17.85;44.58;96533.69;4201484;28;5688;-67
2023/03/23 08:34:33;;;;;;;;;;;;;;;17.89;44.38;96534.81;4201661;28;5819;-67
2023/03/23 08:36:37;;;;;;;;;;;;;;;17.91;44.38;96534.59;4201226;28;5922;-67
2023/03/23 08:38:39;;;;;;;;;;;;;;;17.93;44.24;96532.47;4201428;28;5896;-67
2023/03/23 08:40:41;;;;;;;;;;;;;;;17.96;44.23;96545.34;4201461;28;5795;-67
2023/03/23 08:42:44;;;;;;;;;;;;;;;17.99;44.08;96540.31;4201472;28;5737;-67
2023/03/23 08:44:48;;;;;;;;;;;;;;;18.04;43.92;96539.59;4200232;28;5832;-67
2023/03/23 08:46:56;;;;;;;;;;;;;;;18.06;43.96;96550.03;4201508;28;5745;-66
2023/03/23 08:48:58;;;;;;;;;;;;;;;18.07;43.86;96548.97;4201182;28;5709;-67
2023/03/23 08:51:00;;;;;;;;;;;;;;;18.08;43.87;96542.56;4200749;28;5723;-67
2023/03/23 08:53:03;;;;;;;;;;;;;;;18.09;43.69;96544.19;4199964;28;5877;-67
2023/03/23 08:55:08;;;;;;;;;;;;;;;18.09;43.67;96541.50;4200009;28;5639;-67
2023/03/23 08:57:10;;;;;;;;;;;;;;;18.13;43.63;96550.69;4200323;28;5764;-67
2023/03/23 08:59:13;;;;;;;;;;;;;;;18.13;43.58;96546.13;4201345;28;5726;-67
2023/03/23 09:01:16;;;;;;;;;;;;;;;18.16;43.51;96553.66;4201019;28;6404;-67
2023/03/23 09:03:18;;;;;;;;;;;;;;;18.19;43.44;96552.34;4201262;28;5857;-67
2023/03/23 09:05:24;;;;;;;;;;;;;;;18.21;43.37;96552.91;4201108;28;5705;-67
2023/03/23 09:07:26;;;;;;;;;;;;;;;18.23;43.26;96542.75;4184969;28;5746;-67
2023/03/23 09:09:28;;;;;;;;;;;;;;;18.23;43.24;96543.59;4200813;28;5719;-66
2023/03/23 09:11:30;;;;;;;;;;;;;;;18.27;43.16;96546.56;4201056;28;5675;-66
2023/03/23 09:13:32;;;;;;;;;;;;;;;18.29;43.14;96552.50;4201138;28;5707;-66
2023/03/23 09:15:34;;;;;;;;;;;;;;;18.32;43.14;96549.31;4200955;28;5689;-66
2023/03/23 09:17:39;;;;;;;;;;;;;;;18.36;43.15;96537.06;4200953;28;5802;-66
2023/03/23 09:19:42;;;;;;;;;;;;;;;18.39;42.91;96543.78;4200764;28;5703;-66
2023/03/23 09:21:45;;;;;;;;;;;;;;;18.37;42.78;96540.56;4200693;28;5235;-66
2023/03/23 09:23:48;;;;;;;;;;;;;;;18.39;42.82;96544.59;4200986;28;5839;-66
2023/03/23 09:25:51;;;;;;;;;;;;;;;18.40;42.84;96540.06;4200821;28;5695;-67
2023/03/23 09:27:56;;;;;;;;;;;;;;;18.39;42.76;96547.28;4201057;28;5772;-66
2023/03/23 09:29:58;;;;;;;;;;;;;;;18.41;42.74;96539.78;4200840;28;5697;-66
2023/03/23 09:32:00;;;;;;;;;;;;;;;18.39;42.66;96544.59;4200773;28;5830;-66
2023/03/23 09:34:04;;;;;;;;;;;;;;;18.38;42.52;96542.97;4201108;28;5789;-66
2023/03/23 09:36:11;;;;;;;;;;;;;;;18.38;42.68;96534.13;4200726;28;6561;-66
2023/03/23 09:38:13;;;;;;;;;;;;;;;18.42;42.26;96533.38;4201040;28;5827;-66
2023/03/23 09:40:19;;;;;;;;;;;;;;;18.45;42.45;96538.22;4200692;28;5698;-67
2023/03/23 09:42:38;;;;;;;;;;;;;;;18.48;42.31;96543.09;4200706;28;5766;-66
2023/03/23 09:44:58;;;;;;;;;;;;;;;18.52;42.13;96546.91;4200668;28;5901;-66
2023/03/23 09:47:06;;;;;;;;;;;;;;;18.55;42.13;96543.72;4200739;28;5698;-66
2023/03/23 09:49:14;;;;;;;;;;;;;;;18.57;42.08;96541.63;4200354;28;5742;-68
2023/03/23 09:51:29;;;;;;;;;;;;;;;18.59;42.03;96550.19;4200503;28;5707;-66
2023/03/23 09:53:38;;;;;;;;;;;;;;;18.61;41.98;96545.41;4193787;28;5698;-67
2023/03/23 09:55:41;;;;;;;;;;;;;;;18.60;41.94;96541.09;4200803;28;5782;-67
2023/03/23 09:57:51;;;;;;;;;;;;;;;18.59;41.80;96541.38;4200804;28;5777;-67
2023/03/23 09:59:59;;;;;;;;;;;;;;;18.60;41.87;96541.09;4200152;28;6435;-67
2023/03/23 10:02:14;;;;;;;;;;;;;;;18.58;41.82;96527.16;4200440;28;5896;-67
2023/03/23 10:04:26;;;;;;;;;;;;;;;18.56;41.72;96529.25;4199188;28;5635;-67
2023/03/23 10:06:28;;;;;;;;;;;;;;;18.53;41.76;96529.78;4193029;28;5695;-67
2023/03/23 10:08:34;;;;;;;;;;;;;;;18.59;41.49;96534.13;4200654;28;5710;-68
2023/03/23 10:10:46;;;;;;;;;;;;;;;18.66;41.46;96538.50;4200747;28;5197;-67
2023/03/23 10:12:55;;;;;;;;;;;;;;;18.68;41.35;96544.41;4200697;28;5698;-67
2023/03/23 10:15:10;;;;;;;;;;;;;;;18.67;41.34;96556.19;4200591;28;5806;-68
2023/03/23 10:17:16;;;;;;;;;;;;;;;18.66;41.43;96558.06;4199918;28;5777;-67
2023/03/23 10:19:27;;;;;;;;;;;;;;;18.67;41.33;96540.13;4200088;28;5828;-67
2023/03/23 10:21:31;;;;;;;;;;;;;;;18.71;41.17;96538.59;4183646;28;5695;-68
2023/03/23 10:23:42;;;;;;;;;;;;;;;18.74;41.37;96546.91;4183821;28;5711;-67
2023/03/23 10:25:52;;;;;;;;;;;;;;;18.79;40.97;96559.53;4183888;28;5791;-67
2023/03/23 10:28:05;;;;;;;;;;;;;;;18.81;40.94;96560.94;4196944;28;5702;-67
2023/03/23 10:30:18;;;;;;;;;;;;;;;18.85;40.93;96569.25;4200334;28;5781;-67
2023/03/23 10:32:24;;;;;;;;;;;;;;;18.86;40.93;96560.97;4200272;28;5687;-67
2023/03/23 10:34:33;;;;;;;;;;;;;;;18.87;40.77;96551.06;4200294;28;5846;-68
2023/03/23 10:36:38;;;;;;;;;;;;;;;18.86;40.86;96538.75;4201317;28;5800;-66
2023/03/23 10:38:46;;;;;;;;;;;;;;;18.86;40.78;96549.44;4203551;28;5838;-66
2023/03/23 10:40:52;;;;;;;;;;;;;;;18.85;40.67;96539.81;4203193;28;5802;-66
2023/03/23 10:42:55;;;;;;;;;;;;;;;18.87;40.60;96537.69;4202180;28;5759;-67
2023/03/23 10:44:59;;;;;;;;;;;;;;;18.89;40.66;96555.09;4203312;28;5698;-66
2023/03/23 10:47:03;;;;;;;;;;;;;;;18.96;40.56;96554.13;4203129;28;5699;-67
2023/03/23 10:49:10;;;;;;;;;;;;;;;19.00;40.58;96549.88;4203439;28;5703;-68
2023/03/23 10:51:17;;;;;;;;;;;;;;;19.02;40.52;96548.53;4203177;28;5817;-68
2023/03/23 10:53:24;;;;;;;;;;;;;;;19.04;40.47;96551.81;4202008;28;5767;-68
2023/03/23 10:55:38;;;;;;;;;;;;;;;19.06;40.44;96560.41;4195561;28;5830;-68
2023/03/23 10:57:41;;;;;;;;;;;;;;;19.10;40.43;96566.84;4203331;28;5797;-68
2023/03/23 10:59:44;;;;;;;;;;;;;;;19.12;40.24;96567.41;4202455;28;5711;-67
2023/03/23 11:01:49;;;;;;;;;;;;;;;19.12;40.27;96570.09;4202821;28;5687;-68
2023/03/23 11:03:52;;;;;;;;;;;;;;;19.11;40.20;96567.66;4202977;28;6079;-67
2023/03/23 11:05:57;;;;;;;;;;;;;;;19.11;40.31;96565.78;4202897;28;5754;-67
2023/03/23 11:08:02;;;;;;;;;;;;;;;19.12;40.10;96554.00;4203381;28;5698;-68
2023/03/23 11:10:17;;;;;;;;;;;;;;;19.14;40.33;96572.50;4202868;28;5687;-68
2023/03/23 11:12:22;;;;;;;;;;;;;;;19.14;40.28;96557.28;4202724;28;5688;-68
2023/03/23 11:14:28;;;;;;;;;;;;;;;19.14;40.23;96565.31;4202853;28;5800;-68
2023/03/23 11:16:32;;;;;;;;;;;;;;;19.13;39.84;96563.66;4203023;28;5686;-68
2023/03/23 11:18:37;;;;;;;;;;;;;;;19.11;40.14;96568.47;4202696;28;5686;-68
2023/03/23 11:20:42;;;;;;;;;;;;;;;19.10;40.11;96572.22;4202650;28;5780;-68
2023/03/23 11:22:45;;;;;;;;;;;;;;;19.11;40.06;96565.78;4202177;28;5761;-68
2023/03/23 11:24:53;;;;;;;;;;;;;;;19.09;40.06;96549.16;4202690;28;5695;-67
2023/03/23 11:26:59;;;;;;;;;;;;;;;19.06;40.05;96549.69;4202759;28;5697;-68
2023/03/23 11:29:07;;;;;;;;;;;;;;;19.03;40.01;96552.88;4202667;28;5683;-68
2023/03/23 11:31:10;;;;;;;;;;;;;;;19.02;39.99;96558.44;4202807;28;5828;-68
2023/03/23 11:33:15;;;;;;;;;;;;;;;19.00;40.04;96566.75;4202405;28;6427;-68
2023/03/23 11:35:20;;;;;;;;;;;;;;;18.98;40.06;96563.50;4202374;28;5707;-68
2023/03/23 11:37:29;;;;;;;;;;;;;;;18.96;40.13;96560.28;4202115;28;5715;-67
2023/03/23 11:39:33;;;;;;;;;;;;;;;18.97;40.08;96563.75;4202373;28;5089;-68
2023/03/23 11:41:38;;;;;;;;;;;;;;;18.97;40.05;96571.81;4202353;28;5789;-68
2023/03/23 11:43:44;;;;;;;;;;;;;;;18.93;39.91;96560.78;4202438;28;5908;-68
2023/03/23 11:45:51;;;;;;;;;;;;;;;18.90;40.10;96561.28;4202503;28;5762;-67
2023/03/23 11:48:04;;;;;;;;;;;;;;;18.91;39.78;96570.91;4202209;28;5689;-68
2023/03/23 11:50:14;;;;;;;;;;;;;;;18.89;39.93;96575.72;4202138;28;5699;-68
2023/03/23 11:52:22;;;;;;;;;;;;;;;18.89;39.99;96565.81;4202234;28;5059;-67
2023/03/23 11:54:31;;;;;;;;;;;;;;;18.92;39.86;96559.19;4202520;28;5828;-68
2023/03/23 11:56:37;;;;;;;;;;;;;;;18.93;39.94;96566.16;4201101;28;5623;-67
2023/03/23 11:58:40;;;;;;;;;;;;;;;18.95;39.83;96561.34;4202290;28;5792;-67
2023/03/23 12:00:47;;;;;;;;;;;;;;;18.95;39.93;96558.66;4201794;28;5686;-67
2023/03/23 12:03:08;;;;;;;;;;;;;;;18.94;40.07;96565.09;4202076;28;5778;-67
2023/03/23 12:05:31;;;;;;;;;;;;;;;18.93;39.94;96560.78;4202187;28;5774;-67
2023/03/23 12:08:03;;;;;;;;;;;;;;;18.93;39.94;96560.78;4201934;28;6388;-68
2023/03/23 12:10:22;;;;;;;;;;;;;;;18.99;39.79;96558.97;4182781;28;5786;-67
2023/03/23 12:12:35;;;;;;;;;;;;;;;19.04;40.02;96557.16;4185746;28;5842;-67
2023/03/23 12:14:56;;;;;;;;;;;;;;;19.06;39.71;96552.34;4201033;28;5119;-67
2023/03/23 12:17:07;;;;;;;;;;;;;;;19.11;39.68;96557.75;4201806;28;5709;-67
2023/03/23 12:19:17;;;;;;;;;;;;;;;19.16;39.71;96560.50;4201811;28;5714;-67
2023/03/23 12:21:28;;;;;;;;;;;;;;;19.20;39.67;96560.78;4201940;28;5702;-67
2023/03/23 12:23:39;;;;;;;;;;;;;;;19.22;39.79;96555.97;4201854;28;5822;-67
2023/03/23 12:25:53;;;;;;;;;;;;;;;19.24;39.55;96559.22;4200575;28;5838;-67
2023/03/23 12:28:05;;;;;;;;;;;;;;;19.27;39.56;96553.38;4201731;28;5698;-66
2023/03/23 12:30:31;;;;;;;;;;;;;;;19.25;39.48;96550.09;4201706;28;6373;-67
2023/03/23 12:32:51;;;;;;;;;;;;;;;19.19;39.61;96543.91;4201723;28;5686;-67
2023/03/23 12:35:00;;;;;;;;;;;;;;;19.18;39.57;96547.66;4201575;28;5797;-67
2023/03/23 12:37:21;;;;;;;;;;;;;;;19.16;39.66;96548.97;4201562;28;5778;-67
2023/03/23 12:39:50;;;;;;;;;;;;;;;19.12;39.81;96542.47;4201722;28;5768;-68
2023/03/23 12:41:58;;;;;;;;;;;;;;;19.06;39.63;96547.00;4201293;28;5690;-68
2023/03/23 12:44:06;;;;;;;;;;;;;;;19.01;39.96;96538.88;4201426;28;5865;-67
2023/03/23 12:46:39;;;;;;;;;;;;;;;18.97;40.15;96548.50;4201207;28;5706;-68
2023/03/23 12:48:43;;;;;;;;;;;;;;;18.93;40.25;96544.72;4184880;28;5791;-66
2023/03/23 12:51:02;;;;;;;;;;;;;;;18.89;40.20;96543.59;4196284;28;5710;-67
2023/03/23 12:53:12;;;;;;;;;;;;;;;18.83;40.63;96552.66;4201320;28;5729;-67
2023/03/23 12:55:20;;;;;;;;;;;;;;;18.76;40.61;96560.06;4201179;28;5755;-66
2023/03/23 12:57:30;;;;;;;;;;;;;;;18.70;40.65;96545.00;4191739;28;7684;-67
2023/03/23 12:59:41;;;;;;;;;;;;;;;18.67;40.74;96540.94;4200334;28;5686;-65
2023/03/23 13:01:46;;;;;;;;;;;;;;;18.65;40.75;96558.31;4200889;28;6425;-66
2023/03/23 13:03:55;;;;;;;;;;;;;;;18.65;40.90;96547.59;4201040;28;5694;-66
2023/03/23 13:06:06;;;;;;;;;;;;;;;18.62;40.79;96544.34;4201008;28;7323;-66
2023/03/23 13:08:16;;;;;;;;;;;;;;;18.61;40.91;96545.41;4201102;28;5982;-66
2023/03/23 13:10:23;;;;;;;;;;;;;;;18.57;41.04;96544.28;4201160;28;7687;-66
2023/03/23 13:12:28;;;;;;;;;;;;;;;18.60;40.99;96551.00;4201164;28;6424;-68
2023/03/23 13:14:41;;;;;;;;;;;;;;;18.58;41.03;96556.63;4201105;28;5713;-67
2023/03/23 13:16:52;;;;;;;;;;;;;;;18.56;41.25;96556.03;4200990;28;5695;-67
2023/03/23 13:19:07;;;;;;;;;;;;;;;18.57;41.31;96559.53;4201440;28;5811;-66
2023/03/23 13:21:20;;;;;;;;;;;;;;;18.54;41.20;96563.50;4200737;28;5792;-67
2023/03/23 13:23:24;;;;;;;;;;;;;;;18.51;41.33;96565.88;4200866;28;5836;-66
2023/03/23 13:25:40;;;;;;;;;;;;;;;18.48;41.41;96569.06;4200802;28;5707;-67
2023/03/23 13:27:42;;;;;;;;;;;;;;;18.44;41.44;96574.09;4200803;28;5698;-66
2023/03/23 13:29:47;;;;;;;;;;;;;;;18.42;41.53;96575.41;4200833;28;5710;-66
2023/03/23 13:31:50;;;;;;;;;;;;;;;18.37;41.77;96578.81;4199608;28;5627;-66
2023/03/23 13:33:53;;;;;;;;;;;;;;;18.32;41.83;96576.06;4200690;28;5788;-66
2023/03/23 13:35:55;;;;;;;;;;;;;;;18.30;42.01;96579.00;4200664;28;5702;-67
2023/03/23 13:37:58;;;;;;;;;;;;;;;18.27;42.12;96573.34;4200548;28;5698;-67
2023/03/23 13:40:25;;;;;;;;;;;;;;;18.24;42.41;96582.66;4199316;28;6476;-66
2023/03/23 13:42:30;;;;;;;;;;;;;;;18.19;42.51;96576.44;4192910;28;5682;-66
2023/03/23 13:44:45;;;;;;;;;;;;;;;18.17;42.56;96575.88;4200566;28;5682;-66
2023/03/23 13:47:09;;;;;;;;;;;;;;;18.11;42.86;96566.13;4200529;28;5680;-66
2023/03/23 13:49:20;;;;;;;;;;;;;;;18.04;42.67;96569.81;4200245;28;5768;-66
2023/03/23 13:51:35;;;;;;;;;;;;;;;18.06;42.82;96571.44;4199783;28;5776;-66
2023/03/23 13:53:45;;;;;;;;;;;;;;;18.04;42.98;96579.69;4200728;28;5687;-66
2023/03/23 13:55:50;;;;;;;;;;;;;;;18.02;43.01;96582.63;4200562;28;5765;-67
2023/03/23 13:57:56;;;;;;;;;;;;;;;18.00;43.02;96584.72;4200610;28;5686;-66
2023/03/23 13:59:59;;;;;;;;;;;;;;;17.97;43.29;96582.53;4200408;28;5752;-66
2023/03/23 14:02:36;;;;;;;;;;;;;;;17.91;43.33;96588.06;4200326;28;5702;-66
2023/03/23 14:04:38;;;;;;;;;;;;;;;17.88;43.61;96581.31;4200604;28;5889;-66
2023/03/23 14:06:41;;;;;;;;;;;;;;;17.87;43.50;96585.06;4200034;28;5786;-65
2023/03/23 14:08:45;;;;;;;;;;;;;;;17.88;43.44;96575.97;4200423;28;5686;-65
2023/03/23 14:10:53;;;;;;;;;;;;;;;17.88;43.64;96573.28;4200289;28;5817;-66
2023/03/23 14:12:55;;;;;;;;;;;;;;;17.84;43.78;96571.38;4203980;28;5785;-66
2023/03/23 14:15:04;;;;;;;;;;;;;;;17.81;43.64;96570.00;4203664;28;5702;-66
2023/03/23 14:17:14;;;;;;;;;;;;;;;17.82;43.87;96576.16;4203808;28;5840;-66
2023/03/23 14:19:20;;;;;;;;;;;;;;;17.82;43.80;96568.13;4203334;28;5686;-65
2023/03/23 14:21:38;;;;;;;;;;;;;;;17.83;44.19;96575.09;4195523;28;6108;-65
2023/03/23 14:23:40;;;;;;;;;;;;;;;17.81;44.02;96567.31;4203667;28;7690;-66
2023/03/23 14:25:42;;;;;;;;;;;;;;;17.79;44.10;96569.44;4203595;28;5687;-66
2023/03/23 14:27:46;;;;;;;;;;;;;;;17.79;44.29;96572.13;4203418;28;5683;-66
2023/03/23 14:29:59;;;;;;;;;;;;;;;17.76;44.23;96577.94;4203612;28;5827;-66
2023/03/23 14:32:01;;;;;;;;;;;;;;;17.76;44.10;96575.25;4203542;28;5690;-65
2023/03/23 14:34:05;;;;;;;;;;;;;;;17.76;44.27;96583.28;4203201;28;5711;-66
2023/03/23 14:36:09;;;;;;;;;;;;;;;17.77;44.49;96566.19;4203158;28;5687;-65
2023/03/23 14:38:18;;;;;;;;;;;;;;;17.78;44.32;96567.81;4203378;28;5095;-66
2023/03/23 14:40:20;;;;;;;;;;;;;;;17.80;44.53;96567.56;4203459;28;5773;-66
2023/03/23 14:42:27;;;;;;;;;;;;;;;17.81;44.66;96563.84;4195061;28;5852;-65
2023/03/23 14:44:31;;;;;;;;;;;;;;;17.82;44.72;96555.56;4203321;28;5877;-66
2023/03/23 14:46:33;;;;;;;;;;;;;;;17.83;44.84;96549.16;4203152;28;5690;-66
2023/03/23 14:48:36;;;;;;;;;;;;;;;17.84;44.80;96542.75;4203069;28;5730;-66
2023/03/23 14:50:41;;;;;;;;;;;;;;;17.84;44.77;96540.09;4203742;28;5679;-66
2023/03/23 14:52:44;;;;;;;;;;;;;;;17.85;44.92;96530.19;4203051;28;5687;-67
2023/03/23 14:54:46;;;;;;;;;;;;;;;17.85;44.89;96528.34;4203574;28;5687;-67
2023/03/23 14:56:48;;;;;;;;;;;;;;;17.87;44.92;96531.56;4203356;28;5691;-68
2023/03/23 14:58:54;;;;;;;;;;;;;;;17.90;45.04;96533.78;4201820;28;5647;-67
2023/03/23 15:01:00;;;;;;;;;;;;;;;17.92;44.77;96525.50;4202936;28;5769;-67
2023/03/23 15:03:06;;;;;;;;;;;;;;;17.94;44.94;96520.72;4203160;28;5778;-67
2023/03/23 15:05:15;;;;;;;;;;;;;;;17.94;45.00;96521.53;4202469;28;5793;-66
2023/03/23 15:07:18;;;;;;;;;;;;;;;17.93;45.08;96525.25;4202664;28;5699;-66
2023/03/23 15:09:25;;;;;;;;;;;;;;;17.92;45.09;96518.28;4203089;28;5715;-66
2023/03/23 15:11:30;;;;;;;;;;;;;;;17.92;45.22;96518.28;4203260;28;5818;-67
2023/03/23 15:13:33;;;;;;;;;;;;;;;17.96;45.07;96521.28;4202803;28;5689;-67
2023/03/23 15:15:36;;;;;;;;;;;;;;;17.96;45.09;96511.38;4203007;28;5743;-67
2023/03/23 15:17:39;;;;;;;;;;;;;;;17.99;44.85;96518.91;4203063;28;5694;-67
2023/03/23 15:19:43;;;;;;;;;;;;;;;18.02;45.00;96512.28;4202641;28;5695;-67
2023/03/23 15:21:51;;;;;;;;;;;;;;;18.06;45.13;96517.94;4202448;28;5687;-67
2023/03/23 15:23:53;;;;;;;;;;;;;;;18.07;45.25;96520.34;4191745;28;6454;-67
2023/03/23 15:25:59;;;;;;;;;;;;;;;18.06;45.13;96502.69;4198715;28;5701;-67
2023/03/23 15:28:16;;;;;;;;;;;;;;;18.09;45.16;96502.19;4201456;28;5726;-67
2023/03/23 15:30:31;;;;;;;;;;;;;;;18.19;45.17;96507.66;4195917;28;6070;-67
2023/03/23 15:32:40;;;;;;;;;;;;;;;18.20;44.92;96508.47;4196428;28;5678;-68
2023/03/23 15:34:46;;;;;;;;;;;;;;;18.19;45.30;96496.16;4199706;28;5714;-68
2023/03/23 15:36:55;;;;;;;;;;;;;;;18.24;45.27;96509.63;4198197;28;7223;-67
2023/03/23 15:38:59;;;;;;;;;;;;;;;18.18;45.07;96503.38;4198436;28;5767;-67
2023/03/23 15:41:06;;;;;;;;;;;;;;;18.19;45.37;96496.97;4198985;28;5682;-67
2023/03/23 15:43:17;;;;;;;;;;;;;;;18.14;45.35;96488.91;4201997;28;6506;-67
2023/03/23 15:45:26;;;;;;;;;;;;;;;18.20;45.30;96500.44;4196653;28;5728;-66
2023/03/23 15:47:37;;;;;;;;;;;;;;;18.20;45.36;96501.25;4185091;28;5922;-67
2023/03/23 15:49:39;;;;;;;;;;;;;;;18.22;45.46;96495.66;4189938;28;5803;-65
2023/03/23 15:51:41;;;;;;;;;;;;;;;18.24;45.36;96485.53;4199289;28;5781;-66
2023/03/23 15:53:43;;;;;;;;;;;;;;;18.24;45.51;96493.56;4193825;28;5900;-67
2023/03/23 15:55:46;;;;;;;;;;;;;;;18.25;45.47;96487.97;4194857;28;5797;-66
2023/03/23 15:57:50;;;;;;;;;;;;;;;18.26;45.31;96491.44;4189890;28;5959;-67
2023/03/23 15:59:53;;;;;;;;;;;;;;;18.28;45.41;96490.13;4194456;28;6740;-66
2023/03/23 16:01:57;;;;;;;;;;;;;;;18.30;45.37;96488.00;4197712;28;5687;-67
2023/03/23 16:04:04;;;;;;;;;;;;;;;18.32;45.33;96491.25;4200307;28;6515;-67
2023/03/23 16:06:11;;;;;;;;;;;;;;;18.33;45.44;96489.38;4200431;28;5809;-67
2023/03/23 16:08:26;;;;;;;;;;;;;;;18.34;45.38;96477.59;4193045;28;5703;-67
2023/03/23 16:10:30;;;;;;;;;;;;;;;18.35;45.42;96479.25;4200248;28;5976;-66
2023/03/23 16:12:32;;;;;;;;;;;;;;;18.34;45.40;96478.41;4197266;28;6051;-67
2023/03/23 16:14:37;;;;;;;;;;;;;;;18.30;45.44;96474.63;4200677;28;5785;-67
2023/03/23 16:16:44;;;;;;;;;;;;;;;18.34;45.41;96483.78;4200110;28;5916;-67
2023/03/23 16:18:50;;;;;;;;;;;;;;;18.37;45.40;96479.00;4200510;28;5786;-67
2023/03/23 16:20:53;;;;;;;;;;;;;;;18.37;45.50;96477.13;4199072;28;5708;-67
2023/03/23 16:22:56;;;;;;;;;;;;;;;18.37;45.35;96470.97;4187319;28;5836;-67
2023/03/23 16:24:59;;;;;;;;;;;;;;;18.37;45.33;96470.97;4190899;28;5683;-67
2023/03/23 16:27:02;;;;;;;;;;;;;;;18.36;45.44;96464.00;4186660;28;5802;-67
2023/03/23 16:29:11;;;;;;;;;;;;;;;18.38;45.39;96469.91;4198449;28;5711;-67
2023/03/23 16:31:31;;;;;;;;;;;;;;;18.38;45.32;96478.75;4188723;28;5698;-67
2023/03/23 16:33:34;;;;;;;;;;;;;;;18.38;45.27;96478.75;4199226;28;5820;-67
2023/03/23 16:35:37;;;;;;;;;;;;;;;18.38;45.17;96478.75;4188766;28;5818;-67
2023/03/23 16:37:45;;;;;;;;;;;;;;;18.37;45.34;96471.78;4190732;28;5874;-67
2023/03/23 16:39:48;;;;;;;;;;;;;;;18.38;45.21;96468.03;4190824;28;5841;-67
2023/03/23 16:41:51;;;;;;;;;;;;;;;18.37;45.19;96465.63;4195559;28;5788;-67
2023/03/23 16:43:54;;;;;;;;;;;;;;;18.38;45.19;96456.53;4192209;28;5797;-67
2023/03/23 16:45:57;;;;;;;;;;;;;;;18.37;45.24;96458.41;4193694;28;5734;-68
2023/03/23 16:48:03;;;;;;;;;;;;;;;18.36;45.04;96455.97;4194991;28;5821;-69
2023/03/23 16:50:10;;;;;;;;;;;;;;;18.32;45.25;96448.44;4190318;28;5919;-68
2023/03/23 16:52:13;;;;;;;;;;;;;;;18.35;45.15;96457.84;4193294;28;5708;-67
2023/03/23 16:54:16;;;;;;;;;;;;;;;18.33;45.11;96455.41;4187721;28;5712;-68
2023/03/23 16:56:21;;;;;;;;;;;;;;;18.33;45.10;96455.41;4195304;28;5877;-67
2023/03/23 16:58:25;;;;;;;;;;;;;;;18.30;45.04;96458.56;4195600;28;5889;-69
2023/03/23 17:00:28;;;;;;;;;;;;;;;18.28;45.01;96458.03;4191381;28;5834;-68
2023/03/23 17:02:31;;;;;;;;;;;;;;;18.28;44.96;96449.19;4191117;28;5917;-68
2023/03/23 17:04:36;;;;;;;;;;;;;;;18.27;45.03;96447.56;4194649;28;5098;-67
2023/03/23 17:06:39;;;;;;;;;;;;;;;18.27;45.00;96445.72;4197997;28;5964;-67